Time;durP1;ratioP1;P1;durP2;ratioP2;P2;SDS_P1;SDS_P2;PMS_P1;PMS_P2;Temp;Humidity;BMP_temperature;BMP_pressure;BME280_temperature;BME280_humidity;BME280_pressure;Samples;Min_cycle;Max_cycle;Signal;HPM_P1;HPM_P2
2022/11/20 00:00:05;;;;;;;;;5.50;3.25;;;;;8.36;94.46;100644.97;6291026;22;44689;-92
2022/11/20 00:02:30;;;;;;;;;6.50;6.50;;;;;7.21;94.33;100449.53;6287876;22;45167;-93
2022/11/20 00:04:56;;;;;;;;;7.00;4.75;;;;;6.29;94.21;100309.25;6308742;22;47018;-93
2022/11/20 00:07:23;;;;;;;;;7.50;7.50;;;;;8.23;94.39;100638.06;6318282;22;45190;-94
2022/11/20 00:09:50;;;;;;;;;8.50;7.25;;;;;8.21;94.71;100655.66;6320082;22;45262;-94
2022/11/20 00:12:15;;;;;;;;;4.00;4.00;;;;;7.07;94.54;100453.13;6323770;22;44814;-92
2022/11/20 00:14:42;;;;;;;;;4.00;4.00;;;;;6.04;94.67;100298.88;6323597;22;45336;-93
2022/11/20 00:17:08;;;;;;;;;6.25;6.25;;;;;6.97;94.22;100447.94;6322078;22;45170;-93
2022/11/20 00:19:33;;;;;;;;;9.25;6.25;;;;;7.23;95.18;100517.00;6324843;22;45134;-93
2022/11/20 00:22:13;;;;;;;;;7.00;7.00;;;;;6.89;94.37;100458.53;6328953;22;44908;-92
2022/11/20 00:24:45;;;;;;;;;4.00;4.00;;;;;6.82;95.20;100436.69;6342672;22;47367;-92
2022/11/20 00:27:28;;;;;;;;;6.00;3.25;;;;;7.94;94.97;100637.47;6317664;22;45274;-92
2022/11/20 00:30:00;;;;;;;;;7.75;3.00;;;;;7.12;94.69;100513.53;6310407;22;45223;-91
2022/11/20 00:32:27;;;;;;;;;4.00;4.00;;;;;7.88;95.47;100637.50;6314789;22;45311;-93
2022/11/20 00:34:53;;;;;;;;;3.00;3.00;;;;;7.01;95.00;100515.38;6325539;22;47044;-91
2022/11/20 00:37:19;;;;;;;;;7.75;3.50;;;;;7.21;94.56;100536.28;6325258;22;44732;-92
2022/11/20 00:39:45;;;;;;;;;6.00;4.00;;;;;7.32;94.93;100551.97;6322732;22;45186;-93
2022/11/20 00:42:15;;;;;;;;;4.00;4.00;;;;;7.36;95.02;100572.13;6323126;22;44880;-92
2022/11/20 00:44:50;;;;;;;;;6.25;5.50;;;;;5.93;94.95;100329.53;6324595;22;47171;-93
2022/11/20 00:47:16;;;;;;;;;6.00;6.00;;;;;7.65;95.09;100654.34;6325911;22;45350;-92
2022/11/20 00:49:42;;;;;;;;;3.75;3.75;;;;;6.48;95.11;100443.88;6315264;22;45339;-93
2022/11/20 00:52:14;;;;;;;;;4.00;4.00;;;;;7.22;94.92;100567.81;6282684;22;45186;-92
2022/11/20 00:55:03;;;;;;;;;6.00;4.00;;;;;6.31;95.04;100412.47;6320404;22;46431;-94
2022/11/20 00:57:32;;;;;;;;;4.00;4.00;;;;;6.46;95.26;100459.66;6325786;22;45104;-92
2022/11/20 01:00:14;;;;;;;;;3.25;3.25;;;;;6.36;94.74;100443.06;6358019;22;44602;-92
2022/11/20 01:02:41;;;;;;;;;6.75;4.00;;;;;7.56;95.43;100651.78;6293591;22;45177;-91
2022/11/20 01:05:17;;;;;;;;;3.25;3.25;;;;;5.76;94.54;100333.09;6317088;22;47078;-92
2022/11/20 01:07:44;;;;;;;;;4.00;4.00;;;;;6.50;94.93;100466.63;6343280;22;45304;-90
2022/11/20 01:10:10;;;;;;;;;4.00;4.00;;;;;6.79;94.86;100530.38;6321196;22;44712;-92
2022/11/20 01:12:35;;;;;;;;;3.50;3.25;;;;;6.21;95.04;100444.00;6323651;22;44896;-91
2022/11/20 01:15:01;;;;;;;;;6.00;2.75;;;;;6.27;94.18;100455.34;6321961;22;46921;-94
2022/11/20 01:17:26;;;;;;;;;4.00;4.00;;;;;5.41;94.78;100326.22;6319730;22;45215;-92
2022/11/20 01:19:52;;;;;;;;;4.00;3.00;;;;;7.13;95.01;100614.31;6289300;22;45321;-92
2022/11/20 01:22:18;;;;;;;;;4.00;3.00;;;;;7.14;93.95;100618.72;6319694;22;45026;-91
2022/11/20 01:24:49;;;;;;;;;3.00;3.00;;;;;7.29;94.51;100655.44;6315979;22;46237;-91
2022/11/20 01:27:15;;;;;;;;;3.00;3.00;;;;;7.26;95.22;100644.94;6310276;22;45395;-94
2022/11/20 01:29:43;;;;;;;;;5.00;3.00;;;;;5.54;95.13;100360.25;6307855;22;45216;-93
2022/11/20 01:32:09;;;;;;;;;4.00;4.00;;;;;5.86;94.63;100410.88;6308883;22;45201;-92
2022/11/20 01:34:37;;;;;;;;;4.25;3.25;;;;;5.58;94.58;100382.97;6317162;22;45405;-92
2022/11/20 01:37:02;;;;;;;;;3.50;3.50;;;;;7.12;94.43;100647.59;6315113;22;45170;-92
2022/11/20 01:39:28;;;;;;;;;3.00;3.00;;;;;6.67;94.67;100568.13;6328290;22;44673;-93
2022/11/20 01:44:50;;;;;;;;;2.00;2.00;;;;;7.00;95.11;100630.16;6326970;22;45665;-92
2022/11/20 01:47:28;;;;;;;;;5.00;3.00;;;;;4.94;94.94;100290.50;6321142;22;44790;-92
2022/11/20 01:50:05;;;;;;;;;5.00;2.25;;;;;6.57;95.37;100589.16;6321427;22;45175;-92
2022/11/20 01:53:11;;;;;;;;;5.25;3.00;;;;;6.91;95.31;100656.47;6307870;22;45240;-93
2022/11/20 01:55:46;;;;;;;;;3.00;2.00;;;;;4.87;94.85;100294.88;6308579;22;47244;-93
2022/11/20 01:58:21;;;;;;;;;3.00;3.00;;;;;6.03;95.24;100502.69;6338005;22;45190;-93
2022/11/20 02:00:47;;;;;;;;;4.25;2.75;;;;;5.88;95.13;100476.44;6315314;22;45301;-93
2022/11/20 02:03:16;;;;;;;;;3.50;3.50;;;;;4.90;94.93;100309.72;6295801;22;45155;-92
2022/11/20 02:05:52;;;;;;;;;4.00;2.50;;;;;5.56;95.70;100426.66;6331087;22;44942;-94
2022/11/20 02:08:21;;;;;;;;;2.75;2.50;;;;;5.38;95.90;100402.25;6317703;22;45169;-92
2022/11/20 02:10:46;;;;;;;;;5.50;2.75;;;;;6.69;95.23;100650.41;6325760;22;45188;-93
2022/11/20 02:15:56;;;;;;;;;3.75;3.75;;;;;6.32;94.90;100566.50;6312405;22;45170;-91
2022/11/20 02:18:26;;;;;;;;;5.75;1.75;;;;;4.74;95.48;100299.25;6313276;22;45150;-92
2022/11/20 02:21:05;;;;;;;;;2.00;2.00;;;;;5.44;94.79;100436.31;6321057;22;45301;-93
2022/11/20 02:23:56;;;;;;;;;3.00;2.00;;;;;6.61;95.96;100623.31;6292518;22;45158;-92
2022/11/20 02:26:24;;;;;;;;;2.25;2.25;;;;;6.16;95.09;100556.00;6347043;22;46293;-92
2022/11/20 02:28:50;;;;;;;;;3.00;3.00;;;;;5.40;94.44;100426.69;6318040;22;45176;-93
2022/11/20 02:31:16;;;;;;;;;2.00;2.00;;;;;4.56;95.28;100283.56;6320463;22;45268;-92
2022/11/20 02:33:42;;;;;;;;;2.25;2.25;;;;;5.82;95.51;100503.56;6320165;22;45307;-92
2022/11/20 02:36:16;;;;;;;;;2.00;2.00;;;;;6.23;95.36;100552.50;6321975;22;47314;-92
2022/11/20 02:38:43;;;;;;;;;1.75;1.00;;;;;5.00;94.54;100337.66;6323800;22;44581;-93
2022/11/20 02:41:09;;;;;;;;;3.00;3.00;;;;;5.42;94.82;100424.97;6322732;22;44650;-94
2022/11/20 02:43:36;;;;;;;;;1.50;1.50;;;;;6.41;94.74;100566.47;6319886;22;44838;-93
2022/11/20 02:46:03;;;;;;;;;3.00;3.00;;;;;6.61;94.96;100603.16;6318926;22;47520;-92
2022/11/20 02:48:28;;;;;;;;;2.50;2.50;;;;;4.65;94.50;100269.56;6318150;22;45134;-91
2022/11/20 02:50:55;;;;;;;;;2.00;2.00;;;;;6.23;94.46;100525.38;6316872;22;45148;-93
2022/11/20 02:53:21;;;;;;;;;1.00;1.00;;;;;5.41;94.74;100385.66;6287073;22;45196;-93
2022/11/20 02:55:47;;;;;;;;;2.00;2.00;;;;;6.51;94.36;100575.16;6284074;22;47697;-92
2022/11/20 02:58:12;;;;;;;;;3.00;3.00;;;;;5.44;94.69;100388.25;6286653;22;45182;-92
2022/11/20 03:00:38;;;;;;;;;1.75;1.75;;;;;6.53;94.08;100560.31;6291882;22;44866;-91
2022/11/20 03:03:04;;;;;;;;;1.00;1.00;;;;;6.62;94.87;100568.13;6317915;22;45197;-93
2022/11/20 03:05:31;;;;;;;;;1.00;1.00;;;;;5.80;94.87;100420.50;6270982;22;46698;-93
2022/11/20 03:07:57;;;;;;;;;2.00;2.00;;;;;5.05;94.25;100296.59;6277726;22;44724;-92
2022/11/20 03:10:23;;;;;;;;;2.00;1.00;;;;;5.23;94.19;100334.13;6301643;22;44697;-93
2022/11/20 03:12:54;;;;;;;;;0.00;0.00;;;;;6.15;95.07;100491.28;6294800;22;44822;-93
2022/11/20 03:15:23;;;;;;;;;1.25;1.25;;;;;5.36;94.15;100359.44;6318010;22;45402;-93
2022/11/20 03:17:55;;;;;;;;;1.75;1.75;;;;;6.18;94.82;100475.53;6312454;22;45173;-93
2022/11/20 03:20:21;;;;;;;;;2.75;1.50;;;;;6.19;94.74;100473.75;6283451;22;45418;-92
2022/11/20 03:22:47;;;;;;;;;2.25;2.25;;;;;6.59;94.38;100560.28;6294228;22;45317;-93
2022/11/20 03:25:12;;;;;;;;;2.00;2.00;;;;;4.59;94.74;100210.25;6283521;22;48220;-92
2022/11/20 03:27:39;;;;;;;;;1.00;1.00;;;;;5.77;95.03;100416.16;6317333;22;45213;-92
2022/11/20 03:30:08;;;;;;;;;3.00;2.00;;;;;5.84;94.49;100407.38;6322030;22;45110;-92
2022/11/20 03:32:38;;;;;;;;;3.00;3.00;;;;;6.60;95.27;100551.50;6293891;22;45292;-91
2022/11/20 03:35:06;;;;;;;;;1.00;1.00;;;;;6.59;94.89;100541.88;6314588;22;46636;-92
2022/11/20 03:37:32;;;;;;;;;1.00;1.00;;;;;5.42;94.48;100329.69;6291099;22;45212;-93
2022/11/20 03:39:58;;;;;;;;;1.25;1.00;;;;;6.57;95.22;100541.91;6267075;22;45115;-91
2022/11/20 03:45:11;;;;;;;;;3.00;2.00;;;;;5.11;94.06;100304.44;6326519;22;45251;-93
2022/11/20 03:48:13;;;;;;;;;0.50;0.50;;;;;4.62;94.44;100218.97;6295120;22;45449;-94
2022/11/20 03:50:39;;;;;;;;;1.00;1.00;;;;;5.41;93.85;100349.81;6195035;23;45404;-94
2022/11/20 03:53:06;;;;;;;;;5.50;2.00;;;;;6.57;95.06;100531.38;6199018;22;45417;-95
2022/11/20 03:55:35;;;;;;;;;2.00;2.00;;;;;5.38;94.83;100334.09;6205651;22;46460;-94
2022/11/20 03:58:04;;;;;;;;;3.00;2.00;;;;;5.75;94.82;100391.66;6181679;22;44648;-94
2022/11/20 04:00:32;;;;;;;;;2.75;1.25;;;;;6.54;94.56;100541.00;6205220;22;44744;-94
2022/11/20 04:03:01;;;;;;;;;2.50;2.00;;;;;6.53;94.46;100529.66;6195972;22;45396;-94
2022/11/20 04:05:32;;;;;;;;;1.25;1.00;;;;;5.78;94.65;100402.13;6170042;22;45422;-94
2022/11/20 04:08:03;;;;;;;;;1.50;1.50;;;;;5.73;94.83;100398.66;6199014;22;44660;-94
2022/11/20 04:10:32;;;;;;;;;2.50;1.50;;;;;5.23;94.40;100319.25;6182201;22;45307;-95
2022/11/20 04:13:03;;;;;;;;;2.25;2.00;;;;;6.58;94.57;100533.13;6176253;22;44858;-95
2022/11/20 04:15:35;;;;;;;;;1.00;1.00;;;;;5.90;94.70;100429.22;6231269;22;45638;-94
2022/11/20 04:18:01;;;;;;;;;2.00;1.00;;;;;4.61;94.15;100192.78;6199314;22;45267;-95
2022/11/20 04:20:27;;;;;;;;;0.25;0.25;;;;;5.48;94.95;100342.78;6173630;22;45247;-93
2022/11/20 04:22:55;;;;;;;;;1.75;1.75;;;;;5.57;94.17;100339.28;6203913;22;45159;-94
2022/11/20 04:25:21;;;;;;;;;1.75;1.75;;;;;6.70;94.87;100520.81;6208589;22;46247;-93
2022/11/20 04:27:47;;;;;;;;;2.00;2.00;;;;;4.91;94.42;100228.50;6184259;22;45293;-94
2022/11/20 04:30:14;;;;;;;;;4.00;2.00;;;;;5.33;94.41;100278.19;6209891;22;45395;-94
2022/11/20 04:32:40;;;;;;;;;1.00;1.00;;;;;6.74;94.86;100522.53;6189372;22;45478;-94
2022/11/20 04:35:06;;;;;;;;;2.00;1.25;;;;;6.76;95.32;100537.41;6206388;22;46934;-94
2022/11/20 04:37:33;;;;;;;;;3.75;2.50;;;;;5.91;94.33;100357.53;6220728;22;45258;-94
2022/11/20 04:40:00;;;;;;;;;3.00;3.00;;;;;6.10;94.63;100398.56;6201497;22;45478;-93
2022/11/20 04:42:30;;;;;;;;;3.25;2.25;;;;;5.57;94.58;100308.66;6176301;22;45223;-94
2022/11/20 04:44:56;;;;;;;;;3.00;1.75;;;;;4.89;94.30;100188.38;6182279;22;46402;-93
2022/11/20 04:47:22;;;;;;;;;1.00;1.00;;;;;6.02;93.79;100384.59;6153536;22;44733;-93
2022/11/20 04:49:48;;;;;;;;;2.50;1.25;;;;;5.48;93.70;100288.63;6198359;22;45184;-94
2022/11/20 04:52:15;;;;;;;;;2.00;1.00;;;;;4.77;93.70;100177.94;6205000;22;45600;-93
2022/11/20 04:54:41;;;;;;;;;2.75;1.25;;;;;5.83;93.77;100353.19;6204092;22;47064;-93
2022/11/20 04:57:08;;;;;;;;;1.75;1.00;;;;;6.11;93.74;100389.81;6198024;22;45291;-95
2022/11/20 04:59:34;;;;;;;;;1.00;1.00;;;;;6.33;94.12;100422.09;6178811;22;44743;-95
2022/11/20 05:01:59;;;;;;;;;2.25;2.25;;;;;5.49;93.60;100285.09;6173338;22;45253;-94
2022/11/20 05:04:26;;;;;;;;;0.25;0.25;;;;;5.61;94.71;100304.31;6171352;22;47013;-94
2022/11/20 05:06:55;;;;;;;;;1.50;0.75;;;;;5.59;94.22;100306.06;6199672;22;45230;-94
2022/11/20 05:09:22;;;;;;;;;3.00;1.75;;;;;6.76;95.02;100491.88;6202439;22;45344;-95
2022/11/20 05:11:48;;;;;;;;;2.50;2.00;;;;;6.75;94.49;100519.03;6210712;22;44835;-94
2022/11/20 05:14:15;;;;;;;;;1.00;0.50;;;;;5.58;93.92;100309.56;6229259;22;46430;-94
2022/11/20 05:16:42;;;;;;;;;3.75;3.00;;;;;5.59;94.77;100295.59;6200545;22;44678;-93
2022/11/20 05:19:08;;;;;;;;;2.25;2.25;;;;;5.36;94.46;100257.22;6228108;22;45180;-94
2022/11/20 05:21:35;;;;;;;;;2.75;2.75;;;;;6.73;94.73;100505.91;6207661;22;45305;-93
2022/11/20 05:24:07;;;;;;;;;2.00;2.00;;;;;6.74;94.92;100506.78;6211540;22;47009;-95
2022/11/20 05:26:34;;;;;;;;;3.00;1.75;;;;;6.74;94.81;100488.38;6195551;22;45259;-94
2022/11/20 05:29:00;;;;;;;;;4.00;3.00;;;;;5.92;93.99;100343.50;6201334;22;45184;-95
2022/11/20 05:31:29;;;;;;;;;2.75;2.75;;;;;5.56;94.33;100290.31;6198017;22;45508;-96
2022/11/20 05:33:56;;;;;;;;;3.00;3.00;;;;;6.09;94.37;100404.69;6201081;22;46190;-94
2022/11/20 05:36:22;;;;;;;;;3.00;3.00;;;;;5.88;94.39;100359.25;6208200;22;44678;-92
2022/11/20 05:38:50;;;;;;;;;4.00;4.00;;;;;6.72;94.53;100498.03;6202542;22;45161;-94
2022/11/20 05:41:18;;;;;;;;;3.00;3.00;;;;;5.12;95.04;100232.81;6173039;22;44789;-94
2022/11/20 05:43:55;;;;;;;;;2.50;2.50;;;;;5.95;93.03;100351.38;6172071;22;48276;-94
2022/11/20 05:46:23;;;;;;;;;2.75;2.75;;;;;5.97;93.81;100373.28;6201048;22;44724;-95
2022/11/20 05:48:49;;;;;;;;;2.00;2.00;;;;;5.47;94.10;100292.13;6205635;22;44774;-95
2022/11/20 05:51:26;;;;;;;;;3.00;2.00;;;;;6.64;94.50;100490.19;6176790;22;45456;-95
2022/11/20 05:53:52;;;;;;;;;4.00;4.00;;;;;6.62;94.77;100485.81;6229756;22;46511;-95
2022/11/20 05:56:21;;;;;;;;;6.00;6.00;;;;;5.82;94.35;100366.28;6202854;22;45298;-95
2022/11/20 05:58:50;;;;;;;;;8.75;3.75;;;;;5.99;94.38;100400.38;6229796;22;44619;-94
2022/11/20 06:01:24;;;;;;;;;3.75;3.75;;;;;5.56;94.32;100343.66;6203712;22;44770;-93
2022/11/20 06:03:52;;;;;;;;;4.25;4.25;;;;;6.48;94.38;100484.13;6207461;22;47055;-93
2022/11/20 06:06:24;;;;;;;;;4.50;3.00;;;;;5.37;94.29;100313.97;6204292;22;44958;-93
2022/11/20 06:08:54;;;;;;;;;5.50;4.50;;;;;4.40;95.04;100137.00;6224617;22;45267;-93
2022/11/20 06:11:20;;;;;;;;;10.00;10.00;;;;;4.95;93.76;100248.59;6198748;22;45212;-92
2022/11/20 06:13:47;;;;;;;;;6.75;6.75;;;;;5.12;93.83;100274.75;6202451;22;46781;-92
2022/11/20 06:16:15;;;;;;;;;10.00;7.75;;;;;5.08;94.05;100272.13;6179487;22;45116;-92
2022/11/20 06:18:42;;;;;;;;;5.75;4.25;;;;;5.26;94.69;100307.91;6230406;22;44821;-91
2022/11/20 06:21:14;;;;;;;;;6.75;6.75;;;;;4.86;94.17;100252.97;6201303;22;45405;-92
2022/11/20 06:23:40;;;;;;;;;7.00;6.00;;;;;5.62;94.10;100393.47;6200088;22;46753;-91
2022/11/20 06:26:13;;;;;;;;;6.50;6.00;;;;;5.42;93.77;100356.81;6197443;22;45298;-91
2022/11/20 06:28:40;;;;;;;;;7.50;7.50;;;;;5.68;94.30;100405.69;6195950;22;45148;-92
2022/11/20 06:31:06;;;;;;;;;9.25;9.25;;;;;4.47;93.53;100189.31;6194902;22;45375;-92
2022/11/20 06:33:32;;;;;;;;;6.00;6.00;;;;;6.01;93.42;100457.22;6202202;22;47042;-91
2022/11/20 06:35:59;;;;;;;;;9.50;8.00;;;;;4.78;94.31;100263.44;6180176;22;45323;-93
2022/11/20 06:38:27;;;;;;;;;11.00;7.00;;;;;5.21;94.14;100339.38;6203914;22;45200;-93
2022/11/20 06:40:53;;;;;;;;;7.50;7.50;;;;;4.05;94.05;100153.59;6200413;22;45614;-94
2022/11/20 06:43:20;;;;;;;;;11.75;10.75;;;;;5.73;94.71;100472.09;6271524;22;46654;-93
2022/11/20 06:45:45;;;;;;;;;5.00;5.00;;;;;4.96;93.84;100321.06;6291449;22;45295;-93
2022/11/20 06:48:11;;;;;;;;;7.00;6.00;;;;;4.57;92.99;100260.00;6346496;22;44776;-92
2022/11/20 06:50:37;;;;;;;;;7.00;7.00;;;;;5.74;94.46;100484.34;6342873;22;45580;-92
2022/11/20 06:53:05;;;;;;;;;9.50;7.75;;;;;5.69;93.36;100459.88;6321687;22;46593;-92
2022/11/20 06:55:33;;;;;;;;;8.00;7.50;;;;;4.83;93.39;100321.06;6318034;22;45189;-92
2022/11/20 06:57:59;;;;;;;;;9.25;9.25;;;;;5.26;93.51;100413.59;6316653;22;45248;-93
2022/11/20 07:00:25;;;;;;;;;6.00;6.00;;;;;3.97;94.21;100212.84;6331611;22;44874;-93
2022/11/20 07:02:53;;;;;;;;;9.25;9.25;;;;;5.58;94.04;100475.63;6330319;22;47356;-93
2022/11/20 07:05:20;;;;;;;;;7.50;7.50;;;;;5.32;93.64;100436.31;6324567;22;44778;-93
2022/11/20 07:07:45;;;;;;;;;8.75;8.75;;;;;4.90;94.50;100385.66;6319694;22;45295;-93
2022/11/20 07:10:14;;;;;;;;;12.75;10.00;;;;;5.56;94.14;100481.72;6320740;22;45106;-94
2022/11/20 07:12:40;;;;;;;;;12.00;11.00;;;;;4.62;93.93;100318.44;6295373;22;46912;-91
2022/11/20 07:15:06;;;;;;;;;11.25;9.25;;;;;4.53;93.61;100307.13;6318777;22;45533;-92
2022/11/20 07:17:36;;;;;;;;;14.75;11.00;;;;;3.56;92.98;100150.91;6320198;22;44714;-92
2022/11/20 07:20:02;;;;;;;;;16.00;11.75;;;;;5.50;94.30;100491.34;6317333;22;45164;-92
2022/11/20 07:22:29;;;;;;;;;9.00;8.50;;;;;5.51;93.99;100468.63;6324344;22;46883;-92
2022/11/20 07:24:55;;;;;;;;;6.00;6.00;;;;;5.18;93.96;100427.56;6289699;22;45368;-93
2022/11/20 07:27:20;;;;;;;;;9.75;9.75;;;;;4.33;94.27;100281.78;6316025;22;45346;-93
2022/11/20 07:29:47;;;;;;;;;10.00;7.00;;;;;5.56;94.22;100473.84;6264405;22;45427;-93
2022/11/20 07:32:18;;;;;;;;;7.00;6.00;;;;;3.91;94.12;100191.94;6316402;22;47977;-92
2022/11/20 07:38:12;;;;;;;;;7.50;7.50;;;;;5.66;94.06;100483.47;6325026;22;45065;-93
2022/11/20 07:44:02;;;;;;;;;6.25;6.25;;;;;5.72;94.30;100479.97;6318641;22;45328;-92
2022/11/20 07:46:31;;;;;;;;;7.25;5.50;;;;;5.72;93.77;100495.72;6313084;22;45316;-93
2022/11/20 07:49:00;;;;;;;;;6.00;5.75;;;;;4.62;93.82;100304.50;6314124;22;45170;-93
2022/11/20 07:51:25;;;;;;;;;7.50;5.25;;;;;4.56;93.25;100283.56;6314903;22;45237;-92
2022/11/20 07:53:56;;;;;;;;;12.25;8.00;;;;;4.90;93.52;100320.19;6313422;22;46065;-91
2022/11/20 07:56:22;;;;;;;;;6.00;6.00;;;;;5.58;94.06;100438.03;6288265;22;44588;-92
2022/11/20 07:58:48;;;;;;;;;6.00;4.50;;;;;4.65;93.82;100261.72;6318215;22;44702;-91
2022/11/20 08:01:13;;;;;;;;;7.50;6.75;;;;;5.92;93.87;100482.56;6292885;22;45199;-93
2022/11/20 08:04:15;;;;;;;;;7.25;7.25;;;;;5.98;93.45;100461.56;6321212;22;47827;-94
2022/11/20 08:06:41;;;;;;;;;7.00;5.75;;;;;5.78;93.34;100438.84;6327362;22;44580;-93
2022/11/20 08:09:06;;;;;;;;;7.00;6.00;;;;;5.81;93.89;100425.72;6328267;22;45106;-92
2022/11/20 08:14:23;;;;;;;;;7.00;6.00;;;;;6.19;93.21;100465.88;6312353;22;45793;-92
2022/11/20 08:16:49;;;;;;;;;9.25;7.50;;;;;6.29;92.77;100483.34;6321270;22;45302;-92
2022/11/20 08:19:19;;;;;;;;;7.00;6.00;;;;;5.48;92.50;100335.81;6314970;22;45190;-91
2022/11/20 08:21:46;;;;;;;;;9.25;7.25;;;;;5.65;91.88;100355.88;6293116;22;45406;-92
2022/11/20 08:24:12;;;;;;;;;7.00;7.00;;;;;5.51;92.60;100330.56;6330261;22;47359;-92
2022/11/20 08:26:39;;;;;;;;;11.25;8.00;;;;;6.20;92.46;100437.00;6317126;22;45332;-93
2022/11/20 08:29:06;;;;;;;;;6.75;6.00;;;;;6.11;91.88;100400.31;6311961;22;45213;-93
2022/11/20 08:31:32;;;;;;;;;10.50;9.25;;;;;6.43;91.43;100453.53;6316780;22;45113;-91
2022/11/20 08:34:00;;;;;;;;;10.00;6.25;;;;;5.90;92.63;100382.00;6328564;22;45330;-91
2022/11/20 08:36:25;;;;;;;;;8.50;6.25;;;;;6.45;91.08;100450.00;6354996;22;44796;-92
2022/11/20 08:38:56;;;;;;;;;8.25;7.50;;;;;4.59;90.45;100136.94;6325555;22;44742;-93
2022/11/20 08:41:55;;;;;;;;;11.25;8.00;;;;;6.46;91.63;100443.88;6325018;22;44851;-92
2022/11/20 08:44:23;;;;;;;;;9.00;7.00;;;;;6.27;91.57;100422.13;6313180;22;46407;-93
2022/11/20 08:46:53;;;;;;;;;7.00;7.00;;;;;5.19;92.03;100238.91;6321111;22;45161;-92
2022/11/20 08:49:36;;;;;;;;;11.50;8.25;;;;;6.53;91.70;100434.25;6313085;22;45122;-91
2022/11/20 08:52:05;;;;;;;;;11.25;9.25;;;;;5.54;91.14;100277.22;6309778;22;45456;-92
2022/11/20 08:54:32;;;;;;;;;11.50;10.75;;;;;5.33;92.99;100228.41;6308848;22;46964;-92
2022/11/20 08:57:32;;;;;;;;;13.00;8.25;;;;;5.25;92.10;100206.56;6322743;22;45376;-92
2022/11/20 09:00:01;;;;;;;;;7.75;7.75;;;;;5.38;92.77;100208.28;6324342;22;44718;-92
2022/11/20 09:02:29;;;;;;;;;8.50;7.00;;;;;6.68;92.44;100444.66;6320771;22;45382;-91
2022/11/20 09:05:05;;;;;;;;;13.00;9.50;;;;;5.01;92.38;100139.41;6317244;22;48262;-93
2022/11/20 09:07:35;;;;;;;;;7.75;6.50;;;;;4.68;92.65;100068.84;6313839;22;45221;-93
2022/11/20 09:10:05;;;;;;;;;9.00;6.75;;;;;6.32;93.02;100338.97;6329042;22;44721;-93
2022/11/20 09:12:32;;;;;;;;;12.75;10.50;;;;;6.77;93.39;100412.19;6313958;22;45086;-93
2022/11/20 09:15:00;;;;;;;;;14.00;12.00;;;;;6.44;92.50;100361.63;6340170;22;46693;-92
2022/11/20 09:17:28;;;;;;;;;9.50;8.50;;;;;6.82;92.86;100413.03;6321136;22;45261;-92
2022/11/20 09:19:54;;;;;;;;;13.25;12.00;;;;;6.02;92.38;100292.78;6346973;22;45206;-91
2022/11/20 09:22:28;;;;;;;;;9.00;9.00;;;;;5.23;92.07;100135.81;6323648;22;45125;-91
2022/11/20 09:25:13;;;;;;;;;10.75;10.00;;;;;6.72;92.66;100375.44;6290371;22;45369;-93
2022/11/20 09:27:38;;;;;;;;;12.25;12.00;;;;;6.47;91.57;100351.13;6323187;22;45297;-92
2022/11/20 09:30:05;;;;;;;;;9.00;9.00;;;;;5.92;92.00;100243.81;6322507;22;44707;-93
2022/11/20 09:32:31;;;;;;;;;13.50;12.75;;;;;5.30;92.58;100141.94;6321360;22;45526;-92
2022/11/20 09:35:00;;;;;;;;;12.00;12.00;;;;;6.31;90.99;100323.22;6343886;22;47525;-93
2022/11/20 09:37:26;;;;;;;;;11.25;10.00;;;;;6.68;92.40;100367.59;6315380;22;45330;-93
2022/11/20 09:39:55;;;;;;;;;14.25;12.50;;;;;5.88;92.26;100249.09;6316348;22;45311;-88
2022/11/20 09:42:35;;;;;;;;;20.50;14.00;;;;;4.58;91.89;100031.34;6341223;22;45146;-93
2022/11/20 09:45:57;;;;;;;;;17.00;12.00;;;;;6.61;93.03;100364.16;6343599;22;47197;-92
2022/11/20 09:48:55;;;;;;;;;11.25;11.00;;;;;5.30;93.42;100140.16;6312732;22;44886;-91
2022/11/20 09:55:35;;;;;;;;;14.75;11.00;;;;;6.61;93.57;100363.28;6227105;22;44761;-93
2022/11/20 09:58:44;;;;;;;;;12.00;11.00;;;;;6.61;94.03;100376.41;6193658;23;47527;-92
2022/11/20 10:02:00;;;;;;;;;;;;;;;;;;;;;
2022/11/20 10:04:54;;;;;;;;;10.50;10.00;;;;;5.39;93.87;100164.56;6188950;23;68766;-93
2022/11/20 10:07:32;;;;;;;;;11.50;9.75;;;;;4.80;93.42;100058.31;6160087;23;44787;-92
2022/11/20 10:10:05;;;;;;;;;12.50;12.00;;;;;6.69;93.79;100362.31;6175469;23;47381;-93
2022/11/20 10:12:56;;;;;;;;;11.25;10.00;;;;;6.15;92.90;100269.94;6166509;23;45209;-94
2022/11/20 10:16:16;;;;;;;;;11.75;11.75;;;;;5.99;94.02;100229.81;6165314;23;45449;-94
2022/11/20 10:19:03;;;;;;;;;11.75;11.00;;;;;6.29;93.24;100270.72;6071420;23;45355;-93
2022/11/20 10:25:07;;;;;;;;;10.75;10.75;;;;;4.69;93.83;99997.28;6069253;23;44638;-94
2022/11/20 10:54:15;;;;;;;;;;;;;;;;;;;;;
2022/11/20 11:04:09;;;;;;;;;5.25;5.25;;;;;8.02;94.48;100292.56;6142293;23;44827;-93
2022/11/20 11:06:54;;;;;;;;;3.50;3.50;;;;;6.17;95.42;99974.25;6137652;23;44814;-95
2022/11/20 11:09:33;;;;;;;;;11.25;8.25;;;;;6.22;95.34;99972.44;6134814;23;45232;-94
2022/11/20 11:12:12;;;;;;;;;5.25;3.50;;;;;6.37;95.63;99981.91;6114852;23;46843;-94
2022/11/20 11:21:33;;;;;;;;;6.00;4.00;;;;;7.13;95.58;100067.59;6075056;23;45496;-94
2022/11/20 11:24:45;;;;;;;;;;;;;;;;;;;;;
2022/11/20 11:27:17;;;;;;;;;2.00;2.00;;;;;6.58;96.04;99959.75;6088636;23;73906;-93
2022/11/20 11:33:20;;;;;;;;;3.00;2.75;;;;;7.09;96.09;100054.50;6079306;23;45227;-93
2022/11/20 11:36:07;;;;;;;;;;;;;;;;;;;;;
2022/11/20 11:38:59;;;;;;;;;2.00;2.00;;;;;7.68;96.29;100155.34;6058177;23;73607;-92
2022/11/20 11:41:54;;;;;;;;;2.50;2.50;;;;;8.39;96.10;100270.09;6080225;23;45202;-93
2022/11/20 11:51:23;;;;;;;;;2.00;2.00;;;;;8.38;96.79;100240.25;5947502;23;44728;-92
2022/11/20 11:54:37;;;;;;;;;2.00;2.00;;;;;7.23;96.36;100048.19;5940608;23;44778;-94
2022/11/20 11:57:33;;;;;;;;;2.50;2.50;;;;;8.40;96.28;100229.69;6016706;23;45903;-91
2022/11/20 12:00:48;;;;;;;;;2.75;2.50;;;;;8.43;96.57;100224.38;5980231;23;45443;-93
2022/11/20 12:04:05;;;;;;;;;3.50;3.50;;;;;8.42;95.73;100222.63;6007964;23;45157;-94
2022/11/20 12:06:46;;;;;;;;;6.25;6.25;;;;;7.29;95.93;100033.19;6065020;23;45234;-93
2022/11/20 12:10:10;;;;;;;;;;;;;;;;;;;;;
2022/11/20 12:16:21;;;;;;;;;3.50;3.50;;;;;8.48;95.61;100204.13;5998668;23;45411;-94
2022/11/20 12:18:55;;;;;;;;;4.75;2.75;;;;;7.98;96.31;100106.63;6058504;23;45322;-93
2022/11/20 12:25:14;;;;;;;;;5.25;4.00;;;;;8.58;96.19;100197.81;6107451;23;45778;-94
2022/11/20 12:27:46;;;;;;;;;5.00;4.00;;;;;7.59;95.68;100027.47;5992515;23;45245;-92
2022/11/20 12:30:22;;;;;;;;;3.00;3.00;;;;;8.10;96.06;100121.34;5994819;23;45386;-93
2022/11/20 12:33:23;;;;;;;;;2.00;2.00;;;;;8.69;95.96;100195.84;5996260;23;45414;-91
2022/11/20 12:36:07;;;;;;;;;4.25;2.00;;;;;7.60;95.42;100005.53;5995941;23;45378;-93
2022/11/20 12:39:09;;;;;;;;;6.50;3.00;;;;;8.78;95.61;100205.34;5990886;23;45528;-91
2022/11/20 12:45:14;;;;;;;;;2.75;2.75;;;;;7.73;95.55;100012.31;6012020;23;45267;-92
2022/11/20 12:48:11;;;;;;;;;3.25;3.00;;;;;7.53;95.41;99996.88;5991712;23;45684;-93
2022/11/20 12:54:32;;;;;;;;;10.00;10.00;;;;;8.85;96.47;100209.63;6110229;23;45296;-92
2022/11/20 12:57:55;;;;;;;;;7.50;7.50;;;;;8.81;95.94;100212.34;6103322;23;45276;-92
2022/11/20 13:00:24;;;;;;;;;17.25;17.25;;;;;8.79;95.92;100211.47;6078888;23;48006;-92
2022/11/20 13:02:55;;;;;;;;;7.50;6.50;;;;;8.08;96.55;100087.16;6078113;23;45388;-92
2022/11/20 13:05:24;;;;;;;;;13.25;10.50;;;;;8.27;96.63;100111.38;6074068;23;45355;-90
2022/11/20 13:07:53;;;;;;;;;10.00;8.25;;;;;7.65;96.18;100017.72;6097811;23;45325;-91
2022/11/20 13:10:31;;;;;;;;;9.00;9.00;;;;;7.62;97.19;100002.00;6048939;23;47246;-91
2022/11/20 13:13:07;;;;;;;;;8.75;8.75;;;;;8.90;97.19;100209.53;6093069;23;45328;-90
2022/11/20 13:15:45;;;;;;;;;5.50;4.00;;;;;8.93;97.09;100185.75;6076347;23;45407;-92
2022/11/20 13:18:12;;;;;;;;;10.50;10.50;;;;;8.35;97.16;100077.00;6085495;23;44743;-92
2022/11/20 13:20:45;;;;;;;;;3.75;3.75;;;;;8.03;96.71;100011.81;6082524;23;46749;-92
2022/11/20 13:23:22;;;;;;;;;7.50;4.25;;;;;8.50;96.66;100087.31;6100420;23;44634;-92
2022/11/20 13:25:49;;;;;;;;;4.75;3.75;;;;;9.22;96.96;100215.94;6073824;23;45360;-92
2022/11/20 13:28:17;;;;;;;;;13.50;13.50;;;;;9.25;97.13;100202.69;6083529;23;45581;-93
2022/11/20 13:30:56;;;;;;;;;8.75;7.00;;;;;8.62;97.14;100109.03;6145837;23;46348;-92